• Join FlightAware (Why Join?)
  • Login
  • US Flag 
02:02AM EDT


 

Airport Tracker/Info


-or-


 

Live Flight TrackerFlight Track Log ✈ RPA3228 ✈ 11-Sep-2013 ✈ KBNA - KDCA

Flight Track Log - Related Links

Times and Time Zones

All times are in EDT time to prevent confusion due to time zone crossing. See the RPA3228 flight status page for this flight to view local times or setup timezone preferences in your user account.

Time Position Orientation Groundspeed Altitude Reporting Facility
EDT Latitude Longitude Course Direction KTS MPH feet Rate Location/Type
07:39AM 36.1333 -86.6833 68° East 158 182 1,600  Level Nashville TRACON
07:40AM 36.1500 -86.7167 302° West 161 185 2,600 2,040 Climbing Nashville TRACON
07:41AM 36.1167 -86.7667 230° Southwest 257 296 4,700 2,820 Climbing Nashville TRACON
07:42AM 36.2472 -86.3093 80° East  Level Estimated
07:43AM 36.2879 -86.1861 64° Northeast  Level Estimated
07:43AM 36.0975 -86.6042 98° East 299 344 10,700  Level Memphis Center
07:44AM 36.3284 -86.0627 68° East  Level Estimated
07:44AM 36.1194 -86.4978 76° East 306 352 13,100  Level Memphis Center
07:45AM 36.3689 -85.9393 68° East  Level Estimated
07:45AM 36.1408 -86.3836 77° East 327 376 15,600  Level Memphis Center
07:46AM 36.1642 -86.2669 76° East 338 389 17,800 1,800 Climbing Memphis Center
07:47AM 36.1856 -86.1578 76° East 344 396 19,300 1,560 Climbing Memphis Center
07:48AM 36.2167 -86.0325 73° East 362 417 21,000 1,740 Climbing Memphis Center
07:49AM 36.2708 -85.9139 60° Northeast 373 429 22,800 1,620 Climbing Memphis Center
07:49AM 36.3047 -85.8344 62° Northeast 401 461 23,800 1,560 Climbing Indianapolis Center
07:50AM 36.3681 -85.6992 60° Northeast 409 471 25,500 1,560 Climbing Indianapolis Center
07:51AM 36.4294 -85.5739 59° Northeast 420 483 27,100 1,560 Climbing Indianapolis Center
07:52AM 36.4878 -85.4481 60° Northeast 419 482 28,700 1,380 Climbing Indianapolis Center
07:53AM 36.5494 -85.3186 59° Northeast 429 494 30,000 1,080 Climbing Indianapolis Center
07:54AM 36.6119 -85.1819 60° Northeast 444 511 31,000 480 Climbing Indianapolis Center
07:55AM 36.6544 -85.0497 68° East 417 480 31,000  Level Indianapolis Center
07:56AM 36.6914 -84.9256 70° East 386 444 31,000  Level Indianapolis Center
07:57AM 36.7383 -84.7750 69° East 386 444 31,000  Level Indianapolis Center
07:58AM 36.7767 -84.6497 69° East 386 444 31,000  Level Indianapolis Center
08:00AM 36.8142 -84.5236 70° East 385 443 31,000  Level Indianapolis Center
08:01AM 36.8528 -84.3942 70° East 386 444 31,000  Level Indianapolis Center
08:02AM 36.8917 -84.2686 69° East 386 444 31,000  Level Indianapolis Center
08:03AM 36.9278 -84.1422 70° East 385 443 31,000  Level Indianapolis Center
08:04AM 36.9664 -84.0161 69° East 387 445 31,000  Level Indianapolis Center
08:05AM 37.0031 -83.8897 70° East 385 443 31,000  Level Indianapolis Center
08:06AM 37.0408 -83.7647 69° East 382 440 31,000  Level Indianapolis Center
08:07AM 37.0786 -83.6364 70° East 388 447 31,000  Level Indianapolis Center
08:08AM 37.1211 -83.4881 70° East 386 444 31,000  Level Indianapolis Center
08:09AM 37.1589 -83.3606 70° East 387 445 31,000  Level Indianapolis Center
08:10AM 37.1697 -83.2264 84° East 391 450 31,000  Level Indianapolis Center
08:11AM 37.1692 -83.0892 90° East 391 450 31,000  Level Indianapolis Center
08:12AM 37.1689 -82.9517 90° East 390 449 31,000  Level Indianapolis Center
08:13AM 37.1678 -82.8156 91° East 386 444 31,000  Level Indianapolis Center
08:14AM 37.1675 -82.6800 90° East 385 443 31,000  Level Indianapolis Center
08:15AM 37.1672 -82.5450 90° East 384 442 31,000  Level Indianapolis Center
08:16AM 37.1956 -82.4217 74° East 373 429 31,000  Level Indianapolis Center
08:17AM 37.2872 -82.3236 40° Northeast 366 421 31,000  Level Indianapolis Center
08:18AM 37.3672 -82.2392 40° Northeast 371 427 31,000  Level Indianapolis Center
08:19AM 37.4436 -82.1531 42° Northeast 369 425 31,000  Level Indianapolis Center
08:20AM 37.4850 -82.0308 67° East 376 433 31,000  Level Indianapolis Center
08:21AM 37.5286 -81.9100 65° Northeast 377 434 31,000  Level Indianapolis Center
08:22AM 37.5861 -81.8008 56° Northeast 372 428 31,000  Level Indianapolis Center
08:23AM 37.6481 -81.6947 54° Northeast 374 430 31,000  Level Indianapolis Center
08:24AM 37.7175 -81.5689 55° Northeast 374 430 31,000  Level Indianapolis Center
08:25AM 37.7722 -81.4725 54° Northeast 375 432 31,000  Level Indianapolis Center
08:26AM 37.8406 -81.3489 55° Northeast 373 429 31,000  Level Indianapolis Center
08:27AM 37.8967 -81.2369 58° Northeast 375 432 31,000  Level Indianapolis Center
08:28AM 37.9361 -81.1139 68° East 381 438 31,000  Level Indianapolis Center
08:29AM 37.9675 -80.9878 72° East 378 435 31,000  Level Indianapolis Center
08:30AM 37.9992 -80.8606 72° East 380 437 31,000  Level Indianapolis Center
08:31AM 38.0306 -80.7331 73° East 381 438 31,000  Level Indianapolis Center
08:32AM 38.0617 -80.6039 73° East 384 442 31,000  Level Indianapolis Center
08:33AM 38.0994 -80.4489 73° East 385 443 31,000  Level Indianapolis Center
08:34AM 38.1358 -80.3111 71° East 414 476 31,000  Level Indianapolis Center
08:35AM 38.1764 -80.1578 71° East 447 514 31,000  Level Indianapolis Center
08:36AM 38.2236 -80.0031 69° East 445 512 31,000  Level Washington Center
08:37AM 38.2647 -79.8417 72° East 473 544 31,000  Level Washington Center
08:38AM 38.3033 -79.6956 71° East 482 555 31,000  Level Washington Center
08:39AM 38.3464 -79.5311 71° East 482 555 31,000 -480 Level Washington Center
08:40AM 38.3869 -79.3692 72° East 477 549 30,100 -1,560 Descending Washington Center
08:41AM 38.4294 -79.2122 71° East 471 542 28,000 -2,100 Descending Washington Center
08:42AM 38.4700 -79.0392 73° East 465 535 26,000 -1,080 Descending Washington Center
08:43AM 38.4992 -78.8839 76° East 451 519 25,900 -960 Descending Washington Center
08:44AM 38.5203 -78.7283 80° East 451 519 24,100 -1,740 Descending Washington Center
08:45AM 38.5403 -78.5886 80° East 434 499 22,400 -1,500 Descending Washington Center
08:46AM 38.5647 -78.4486 77° East 410 472 21,100 -1,380 Descending Washington Center
08:47AM 38.5867 -78.3142 78° East 400 460 19,600 -1,680 Descending Washington Center
08:48AM 38.6186 -78.1825 73° East 389 448 17,900 -1,680 Descending Washington Center
08:49AM 38.6544 -78.0694 68° East 364 419 16,300 -1,500 Descending Washington Center
08:50AM 38.6878 -77.9667 67° East 335 386 14,900 -1,440 Descending Washington Center
08:51AM 38.7211 -77.8614 68° East 314 361 13,500 -1,380 Descending Washington Center
08:52AM 38.7686 -77.7722 56° Northeast 303 349 12,200 -1,320 Descending Washington Center
08:53AM 38.8242 -77.6914 49° Northeast 303 349 10,900 -1,380 Descending Washington Center
08:54AM 38.8833 -77.6167 44° Northeast 301 346 9,600 -1,500 Descending Potomac TRACON
08:55AM 38.9167 -77.5167 67° East 299 344 8,100 -900 Descending Potomac TRACON
08:56AM 38.8833 -77.4667 131° Southeast 242 278 8,000 -180 Descending Potomac TRACON
08:57AM 38.8500 -77.4000 123° Southeast 233 268 7,800 -360 Descending Potomac TRACON
08:58AM 38.8167 -77.3333 123° Southeast 214 246 7,300 -420 Descending Potomac TRACON
08:59AM 38.7833 -77.2667 123° Southeast 220 253 7,000 -600 Descending Potomac TRACON
09:00AM 38.8167 -77.2000 57° Northeast 208 239 6,100 -540 Descending Potomac TRACON
09:01AM 38.8500 -77.1667 38° Northeast 217 250 6,000 -60 Descending Potomac TRACON
09:02AM 38.9000 -77.2000 333° Northwest 212 244 6,000  Level Potomac TRACON
09:03AM 38.9500 -77.2500 322° Northwest 199 229 6,000  Level Potomac TRACON
09:04AM 38.9833 -77.3000 311° West 193 222 6,000 -540 Level Potomac TRACON
09:05AM 39.0167 -77.3500 311° West 192 221 5,000 -540 Descending Potomac TRACON
09:06AM 39.0667 -77.3167 27° Northeast 186 214 5,000  Level Potomac TRACON
09:07AM 39.0667 -77.2667 90° East 187 215 5,000 -480 Level Potomac TRACON
09:08AM 39.0167 -77.2333 153° Southeast 186 214 4,100 -660 Descending Potomac TRACON
09:09AM 38.9833 -77.2167 159° South 184 212 3,800 -600 Descending Potomac TRACON
09:10AM 38.9667 -77.1500 108° East 181 208 3,000 -900 Descending Potomac TRACON
09:11AM 38.9333 -77.1167 142° Southeast 179 206 2,000 -1,080 Descending Potomac TRACON
09:12AM 38.9000 -77.0667 131° Southeast 163 188 900 -1,140 Descending Potomac TRACON